createdAt,value
2018-02-02T00:00:34.589Z,99.99
2018-02-02T00:01:34.545Z,99.99
2018-02-02T00:02:34.513Z,99.99
2018-02-02T00:03:34.463Z,99.99
2018-02-02T00:04:34.419Z,99.99
2018-02-02T00:05:34.379Z,99.99
2018-02-02T00:06:34.336Z,99.99
2018-02-02T00:07:34.291Z,99.99
2018-02-02T00:08:34.251Z,99.99
2018-02-02T00:09:34.228Z,99.99
2018-02-02T00:10:34.166Z,99.99
2018-02-02T00:11:34.127Z,99.99
2018-02-02T00:12:34.080Z,99.99
2018-02-02T00:13:34.039Z,99.99
2018-02-02T00:14:33.993Z,99.99
2018-02-02T00:15:33.957Z,99.71
2018-02-02T00:16:33.917Z,99.71
2018-02-02T00:17:33.868Z,99.81
2018-02-02T00:18:33.826Z,99.24
2018-02-02T00:19:33.794Z,99.71
2018-02-02T00:20:33.737Z,99.71
2018-02-02T00:21:33.709Z,99.05
2018-02-02T00:22:33.653Z,98.77
2018-02-02T00:23:33.607Z,99.15
2018-02-02T00:24:33.568Z,99.24
2018-02-02T00:25:33.535Z,98.49
2018-02-02T00:26:33.487Z,98.96
2018-02-02T00:27:33.442Z,98.68
2018-02-02T00:28:33.407Z,99.33
2018-02-02T00:29:33.363Z,98.11
2018-02-02T00:30:33.310Z,97.73
2018-02-02T00:31:33.267Z,97.44
2018-02-02T00:32:33.228Z,98.11
2018-02-02T00:33:33.190Z,97.82
2018-02-02T00:34:33.140Z,98.39
2018-02-02T00:35:33.098Z,97.44
2018-02-02T00:36:33.054Z,97.63
2018-02-02T00:37:33.012Z,97.63
2018-02-02T00:38:32.967Z,97.54
2018-02-02T00:39:32.924Z,97.06
2018-02-02T00:40:32.894Z,97.16
2018-02-02T00:41:32.851Z,96.78
2018-02-02T00:42:32.803Z,96.12
2018-02-02T00:43:32.767Z,96.12
2018-02-02T00:44:32.716Z,96.12
2018-02-02T00:45:32.675Z,95.74
2018-02-02T00:46:32.643Z,95.64
2018-02-02T00:47:32.599Z,95.55
2018-02-02T00:48:32.540Z,95.26
2018-02-02T00:49:32.499Z,95.74
2018-02-02T00:50:32.454Z,95.17
2018-02-02T00:51:32.416Z,96.12
2018-02-02T00:52:32.381Z,94.51
2018-02-02T00:53:32.340Z,94.89
2018-02-02T00:54:32.293Z,94.70
2018-02-02T00:55:32.246Z,95.36
2018-02-02T00:56:32.207Z,95.07
2018-02-02T00:57:32.158Z,94.60
2018-02-02T00:58:32.126Z,94.23
2018-02-02T00:59:32.075Z,94.32
2018-02-02T01:00:32.034Z,93.75
2018-02-02T01:01:31.986Z,93.94
2018-02-02T01:02:31.972Z,93.65
2018-02-02T01:03:31.902Z,93.75
2018-02-02T01:04:31.871Z,93.65
2018-02-02T01:05:31.818Z,93.18
2018-02-02T01:06:31.772Z,93.84
2018-02-02T01:07:31.739Z,92.80
2018-02-02T01:08:31.685Z,92.33
2018-02-02T01:09:31.650Z,92.43
2018-02-02T01:10:31.604Z,92.71
2018-02-02T01:11:31.564Z,93.08
2018-02-02T01:12:31.521Z,92.33
2018-02-02T01:13:31.489Z,92.43
2018-02-02T01:14:31.448Z,92.43
2018-02-02T01:15:31.395Z,91.38
2018-02-02T01:16:31.364Z,91.57
2018-02-02T01:17:31.300Z,90.44
2018-02-02T01:18:31.269Z,90.44
2018-02-02T01:19:31.231Z,91.38
2018-02-02T01:20:31.181Z,90.34
2018-02-02T01:21:31.129Z,90.34
2018-02-02T01:22:31.093Z,91.38
2018-02-02T01:23:31.053Z,91.10
2018-02-02T01:24:31.039Z,90.44
2018-02-02T01:25:31.018Z,90.81
2018-02-02T01:26:30.916Z,90.53
2018-02-02T01:27:30.880Z,90.15
2018-02-02T01:28:30.828Z,89.87
2018-02-02T01:29:30.791Z,89.87
2018-02-02T01:30:30.742Z,89.30
2018-02-02T01:31:30.700Z,89.01
2018-02-02T01:32:30.668Z,89.06
2018-02-02T01:33:30.655Z,89.16
2018-02-02T01:34:30.571Z,88.31
2018-02-02T01:35:30.529Z,88.92
2018-02-02T01:36:30.487Z,88.78
2018-02-02T01:37:30.452Z,88.59
2018-02-02T01:38:30.414Z,87.93
2018-02-02T01:39:30.370Z,88.17
2018-02-02T01:40:30.315Z,88.26
2018-02-02T01:41:30.285Z,87.88
2018-02-02T01:42:30.236Z,87.74
2018-02-02T01:43:30.209Z,88.35
2018-02-02T01:44:30.146Z,88.31
2018-02-02T01:45:30.102Z,87.84
2018-02-02T01:46:30.057Z,87.02
2018-02-02T01:47:30.018Z,86.98
2018-02-02T01:48:29.972Z,86.36
2018-02-02T01:49:29.930Z,86.70
2018-02-02T01:50:29.893Z,86.83
2018-02-02T01:51:29.843Z,88.02
2018-02-02T01:52:29.797Z,86.70
2018-02-02T01:53:29.772Z,86.46
2018-02-02T01:54:29.716Z,86.70
2018-02-02T01:55:29.670Z,86.51
2018-02-02T01:56:29.638Z,86.89
2018-02-02T01:57:29.586Z,86.32
2018-02-02T01:58:29.543Z,85.94
2018-02-02T01:59:29.498Z,86.22
2018-02-02T02:00:29.455Z,85.57
2018-02-02T02:01:29.424Z,84.71
2018-02-02T02:02:29.376Z,85.85
2018-02-02T02:03:29.330Z,84.71
2018-02-02T02:04:29.286Z,84.05
2018-02-02T02:05:29.241Z,84.14
2018-02-02T02:06:29.196Z,83.76
2018-02-02T02:07:29.156Z,83.39
2018-02-02T02:08:29.120Z,82.82
2018-02-02T02:09:29.073Z,81.87
2018-02-02T02:10:29.024Z,81.87
2018-02-02T02:11:28.985Z,82.72
2018-02-02T02:12:28.937Z,82.53
2018-02-02T02:13:28.895Z,81.68
2018-02-02T02:14:28.856Z,82.06
2018-02-02T02:15:28.816Z,82.15
2018-02-02T02:16:28.767Z,81.87
2018-02-02T02:17:28.757Z,81.68
2018-02-02T02:18:28.688Z,81.30
2018-02-02T02:19:28.650Z,81.12
2018-02-02T02:20:28.597Z,81.68
2018-02-02T02:21:28.550Z,80.55
2018-02-02T02:22:28.510Z,80.74
2018-02-02T02:23:28.467Z,80.74
2018-02-02T02:24:28.422Z,80.45
2018-02-02T02:25:28.382Z,80.17
2018-02-02T02:26:28.336Z,79.50
2018-02-02T02:27:28.292Z,80.45
2018-02-02T02:28:28.250Z,80.74
2018-02-02T02:29:28.215Z,79.60
2018-02-02T02:30:28.170Z,79.69
2018-02-02T02:31:28.133Z,79.13
2018-02-02T02:32:28.082Z,78.56
2018-02-02T02:33:28.036Z,79.13
2018-02-02T02:34:27.998Z,78.94
2018-02-02T02:35:27.949Z,78.94
2018-02-02T02:36:27.907Z,78.56
2018-02-02T02:37:27.866Z,78.94
2018-02-02T02:38:27.824Z,78.37
2018-02-02T02:39:27.780Z,78.75
2018-02-02T02:40:27.735Z,78.37
2018-02-02T02:41:27.689Z,77.89
2018-02-02T02:42:27.647Z,77.70
2018-02-02T02:43:27.608Z,77.33
2018-02-02T02:44:27.565Z,77.80
2018-02-02T02:45:27.526Z,77.51
2018-02-02T02:46:27.480Z,77.23
2018-02-02T02:47:27.448Z,77.14
2018-02-02T02:48:27.400Z,76.86
2018-02-02T02:49:27.347Z,77.14
2018-02-02T02:50:27.394Z,76.86
2018-02-02T02:51:27.272Z,76.95
2018-02-02T02:52:27.224Z,77.04
2018-02-02T02:53:27.173Z,76.95
2018-02-02T02:54:27.130Z,76.86
2018-02-02T02:55:27.090Z,76.86
2018-02-02T02:56:27.050Z,77.61
2018-02-02T02:57:27.010Z,77.23
2018-02-02T02:58:26.967Z,76.76
2018-02-02T02:59:26.916Z,76.10
2018-02-02T03:00:26.871Z,76.48
2018-02-02T03:01:26.825Z,75.43
2018-02-02T03:02:26.794Z,75.24
2018-02-02T03:03:26.757Z,74.58
2018-02-02T03:04:26.701Z,74.30
2018-02-02T03:05:26.657Z,74.30
2018-02-02T03:06:26.614Z,74.49
2018-02-02T03:07:26.571Z,74.40
2018-02-02T03:08:26.528Z,74.77
2018-02-02T03:09:26.491Z,74.58
2018-02-02T03:10:26.440Z,74.02
2018-02-02T03:11:26.397Z,74.30
2018-02-02T03:12:26.362Z,73.45
2018-02-02T03:13:26.310Z,73.54
2018-02-02T03:14:26.267Z,73.83
2018-02-02T03:15:26.225Z,73.07
2018-02-02T03:16:26.182Z,72.69
2018-02-02T03:17:26.136Z,73.07
2018-02-02T03:18:26.095Z,72.41
2018-02-02T03:19:26.051Z,72.41
2018-02-02T03:20:26.012Z,71.74
2018-02-02T03:21:25.968Z,71.46
2018-02-02T03:22:25.923Z,71.36
2018-02-02T03:23:25.891Z,71.46
2018-02-02T03:24:25.837Z,72.03
2018-02-02T03:25:25.801Z,72.50
2018-02-02T03:26:25.749Z,72.69
2018-02-02T03:27:25.713Z,71.46
2018-02-02T03:28:25.666Z,71.08
2018-02-02T03:29:25.622Z,71.08
2018-02-02T03:30:25.580Z,71.36
2018-02-02T03:31:25.533Z,70.70
2018-02-02T03:32:25.495Z,70.79
2018-02-02T03:33:25.450Z,71.55
2018-02-02T03:34:25.405Z,71.17
2018-02-02T03:35:25.362Z,71.36
2018-02-02T03:36:25.318Z,71.17
2018-02-02T03:37:25.283Z,69.85
2018-02-02T03:38:25.232Z,69.57
2018-02-02T03:39:25.190Z,68.62
2018-02-02T03:40:25.148Z,68.52
2018-02-02T03:41:25.107Z,68.33
2018-02-02T03:42:25.062Z,68.24
2018-02-02T03:43:25.016Z,68.24
2018-02-02T03:44:24.978Z,68.05
2018-02-02T03:45:24.933Z,67.39
2018-02-02T03:46:24.888Z,67.01
2018-02-02T03:47:24.845Z,66.73
2018-02-02T03:48:24.801Z,67.49
2018-02-02T03:49:24.766Z,66.92
2018-02-02T03:50:24.742Z,66.63
2018-02-02T03:51:24.683Z,66.25
2018-02-02T03:52:24.626Z,65.88
2018-02-02T03:53:24.591Z,65.69
2018-02-02T03:54:24.575Z,66.16
2018-02-02T03:55:24.499Z,65.21
2018-02-02T03:56:24.463Z,64.55
2018-02-02T03:57:24.415Z,65.50
2018-02-02T03:58:24.370Z,65.78
2018-02-02T03:59:24.331Z,65.21
2018-02-02T04:00:24.280Z,64.45
2018-02-02T04:01:24.261Z,64.74
2018-02-02T04:02:24.198Z,65.12
2018-02-02T04:03:24.171Z,65.40
2018-02-02T04:04:24.123Z,64.93
2018-02-02T04:05:24.078Z,64.74
2018-02-02T04:06:24.029Z,64.83
2018-02-02T04:07:23.997Z,64.64
2018-02-02T04:08:23.944Z,64.93
2018-02-02T04:09:23.905Z,66.16
2018-02-02T04:10:23.854Z,64.64
2018-02-02T04:11:23.809Z,64.64
2018-02-02T04:12:23.763Z,64.36
2018-02-02T04:13:23.731Z,63.89
2018-02-02T04:14:23.677Z,63.13
2018-02-02T04:15:23.633Z,63.89
2018-02-02T04:16:23.590Z,63.98
2018-02-02T04:17:23.549Z,63.98
2018-02-02T04:18:23.505Z,62.75
2018-02-02T04:19:23.461Z,61.99
2018-02-02T04:20:23.421Z,61.80
2018-02-02T04:21:23.379Z,62.85
2018-02-02T04:22:23.342Z,62.66
2018-02-02T04:23:23.297Z,62.75
2018-02-02T04:24:23.250Z,62.85
2018-02-02T04:25:23.203Z,62.18
2018-02-02T04:26:23.161Z,61.80
2018-02-02T04:27:23.114Z,61.33
2018-02-02T04:28:23.073Z,62.18
2018-02-02T04:29:23.026Z,61.90
2018-02-02T04:30:22.986Z,62.85
2018-02-02T04:31:22.943Z,62.09
2018-02-02T04:32:22.900Z,61.33
2018-02-02T04:33:22.855Z,61.99
2018-02-02T04:34:22.820Z,61.90
2018-02-02T04:35:22.770Z,62.66
2018-02-02T04:36:22.725Z,62.28
2018-02-02T04:37:22.682Z,62.28
2018-02-02T04:38:22.639Z,61.99
2018-02-02T04:39:22.595Z,61.61
2018-02-02T04:40:22.554Z,61.80
2018-02-02T04:41:22.510Z,62.28
2018-02-02T04:42:22.477Z,61.80
2018-02-02T04:43:22.438Z,61.33
2018-02-02T04:44:22.391Z,61.43
2018-02-02T04:45:22.342Z,61.80
2018-02-02T04:46:22.294Z,61.33
2018-02-02T04:47:22.252Z,60.58
2018-02-02T04:48:22.209Z,60.67
2018-02-02T04:49:22.166Z,60.29
2018-02-02T04:50:22.119Z,58.97
2018-02-02T04:51:22.079Z,59.34
2018-02-02T04:52:22.033Z,58.56
2018-02-02T04:53:21.988Z,57.42
2018-02-02T04:54:21.943Z,57.17
2018-02-02T04:55:21.899Z,57.33
2018-02-02T04:56:21.859Z,57.54
2018-02-02T04:57:21.823Z,58.09
2018-02-02T04:58:21.774Z,57.90
2018-02-02T04:59:21.726Z,57.80
2018-02-02T05:00:21.687Z,57.14
2018-02-02T05:01:21.640Z,57.07
2018-02-02T05:02:21.598Z,57.26
2018-02-02T05:03:21.560Z,57.64
2018-02-02T05:04:21.514Z,57.26
2018-02-02T05:05:21.469Z,57.45
2018-02-02T05:06:21.429Z,58.40
2018-02-02T05:07:21.383Z,58.30
2018-02-02T05:08:21.337Z,58.68
2018-02-02T05:09:21.295Z,58.59
2018-02-02T05:10:21.253Z,58.30
2018-02-02T05:11:21.205Z,58.40
2018-02-02T05:12:21.166Z,57.92
2018-02-02T05:13:21.119Z,57.04
2018-02-02T05:14:21.078Z,57.23
2018-02-02T05:15:21.034Z,56.57
2018-02-02T05:16:20.990Z,56.03
2018-02-02T05:17:20.945Z,55.72
2018-02-02T05:18:20.903Z,54.87
2018-02-02T05:19:20.865Z,55.06
2018-02-02T05:20:20.817Z,55.08
2018-02-02T05:21:20.782Z,54.87
2018-02-02T05:22:20.733Z,55.82
2018-02-02T05:23:20.690Z,54.90
2018-02-02T05:24:20.647Z,56.22
2018-02-02T05:25:20.598Z,55.75
2018-02-02T05:26:20.554Z,55.06
2018-02-02T05:27:20.524Z,55.08
2018-02-02T05:28:20.476Z,54.87
2018-02-02T05:29:20.433Z,55.15
2018-02-02T05:30:20.387Z,55.06
2018-02-02T05:31:20.344Z,55.06
2018-02-02T05:32:20.299Z,54.71
2018-02-02T05:33:20.260Z,54.87
2018-02-02T05:34:20.223Z,55.06
2018-02-02T05:35:20.167Z,54.11
2018-02-02T05:36:20.125Z,54.11
2018-02-02T05:37:20.076Z,53.92
2018-02-02T05:38:20.038Z,52.50
2018-02-02T05:39:19.992Z,52.31
2018-02-02T05:40:19.957Z,52.03
2018-02-02T05:41:19.911Z,53.66
2018-02-02T05:42:19.875Z,52.88
2018-02-02T05:43:19.828Z,53.76
2018-02-02T05:44:19.777Z,54.33
2018-02-02T05:45:19.736Z,54.99
2018-02-02T05:46:19.697Z,54.71
2018-02-02T05:47:19.645Z,54.61
2018-02-02T05:48:19.605Z,55.46
2018-02-02T05:49:19.557Z,55.65
2018-02-02T05:50:19.518Z,55.08
2018-02-02T05:51:19.475Z,55.27
2018-02-02T05:52:19.438Z,55.46
2018-02-02T05:53:19.386Z,55.75
2018-02-02T05:54:19.359Z,56.70
2018-02-02T05:55:19.300Z,57.35
2018-02-02T05:56:19.270Z,57.92
2018-02-02T05:57:19.212Z,57.54
2018-02-02T05:58:19.171Z,58.59
2018-02-02T05:59:19.126Z,57.83
2018-02-02T06:00:19.084Z,58.68
2018-02-02T06:01:19.040Z,59.72
2018-02-02T06:02:18.995Z,59.44
2018-02-02T06:03:18.955Z,59.44
2018-02-02T06:04:18.909Z,59.81
2018-02-02T06:05:18.890Z,59.53
2018-02-02T06:06:18.827Z,59.53
2018-02-02T06:07:18.794Z,59.53
2018-02-02T06:08:18.744Z,60.86
2018-02-02T06:09:18.695Z,61.90
2018-02-02T06:10:18.650Z,62.28
2018-02-02T06:11:18.622Z,62.09
2018-02-02T06:12:18.580Z,61.33
2018-02-02T06:13:18.522Z,61.61
2018-02-02T06:14:18.480Z,61.71
2018-02-02T06:15:18.440Z,60.86
2018-02-02T06:16:18.403Z,61.43
2018-02-02T06:17:18.407Z,61.52
2018-02-02T06:18:18.311Z,61.52
2018-02-02T06:19:18.265Z,61.52
2018-02-02T06:20:18.229Z,62.18
2018-02-02T06:21:18.198Z,63.32
2018-02-02T06:22:18.147Z,64.55
2018-02-02T06:23:18.107Z,63.70
2018-02-02T06:24:18.071Z,63.42
2018-02-02T06:25:18.015Z,63.04
2018-02-02T06:26:17.969Z,64.55
2018-02-02T06:27:17.927Z,65.59
2018-02-02T06:28:17.886Z,64.26
2018-02-02T06:29:17.832Z,63.89
2018-02-02T06:30:17.800Z,64.64
2018-02-02T06:31:17.749Z,65.40
2018-02-02T06:32:17.729Z,64.45
2018-02-02T06:33:17.666Z,63.89
2018-02-02T06:34:17.657Z,62.94
2018-02-02T06:35:17.608Z,64.45
2018-02-02T06:36:17.541Z,63.42
2018-02-02T06:37:17.526Z,63.89
2018-02-02T06:38:17.462Z,64.26
2018-02-02T06:39:17.421Z,64.64
2018-02-02T06:40:17.365Z,64.64
2018-02-02T06:41:17.336Z,63.51
2018-02-02T06:42:17.277Z,62.75
2018-02-02T06:43:17.231Z,62.94
2018-02-02T06:44:17.188Z,62.94
2018-02-02T06:45:17.146Z,62.28
2018-02-02T06:46:17.104Z,64.26
2018-02-02T06:47:17.071Z,64.74
2018-02-02T06:48:17.019Z,64.74
2018-02-02T06:49:16.984Z,63.60
2018-02-02T06:50:16.944Z,63.13
2018-02-02T06:51:16.890Z,64.36
2018-02-02T06:52:16.848Z,63.60
2018-02-02T06:53:16.804Z,63.89
2018-02-02T06:54:16.760Z,64.26
2018-02-02T06:55:16.721Z,65.02
2018-02-02T06:56:16.679Z,65.81
2018-02-02T06:57:16.632Z,65.34
2018-02-02T06:58:16.607Z,67.05
2018-02-02T06:59:16.549Z,65.72
2018-02-02T07:00:16.503Z,66.00
2018-02-02T07:01:16.459Z,65.34
2018-02-02T07:02:16.417Z,66.00
2018-02-02T07:03:16.374Z,67.24
2018-02-02T07:04:16.342Z,68.37
2018-02-02T07:05:16.286Z,68.46
2018-02-02T07:06:16.245Z,68.27
2018-02-02T07:07:16.203Z,68.08
2018-02-02T07:08:16.159Z,67.33
2018-02-02T07:09:16.120Z,65.25
2018-02-02T07:10:16.111Z,65.81
2018-02-02T07:11:16.037Z,64.96
2018-02-02T07:12:15.994Z,66.00
2018-02-02T07:13:15.948Z,63.45
2018-02-02T07:14:15.908Z,64.39
2018-02-02T07:15:15.864Z,63.82
2018-02-02T07:16:15.819Z,66.47
2018-02-02T07:17:15.783Z,66.19
2018-02-02T07:18:15.736Z,64.87
2018-02-02T07:19:15.694Z,65.91
2018-02-02T07:20:15.650Z,64.68
2018-02-02T07:21:15.620Z,65.81
2018-02-02T07:22:15.574Z,68.27
2018-02-02T07:23:15.534Z,65.06
2018-02-02T07:24:15.516Z,65.34
2018-02-02T07:25:15.438Z,64.96
2018-02-02T07:26:15.392Z,64.96
2018-02-02T07:27:15.357Z,68.84
2018-02-02T07:28:15.309Z,68.75
2018-02-02T07:29:15.266Z,67.99
2018-02-02T07:30:15.226Z,68.46
2018-02-02T07:31:15.192Z,67.71
2018-02-02T07:32:15.139Z,67.05
2018-02-02T07:33:15.102Z,69.51
2018-02-02T07:34:15.056Z,68.27
2018-02-02T07:35:15.013Z,70.45
2018-02-02T07:36:14.992Z,72.16
2018-02-02T07:37:14.926Z,69.98
2018-02-02T07:38:14.884Z,70.17
2018-02-02T07:39:14.855Z,70.83
2018-02-02T07:40:14.800Z,71.12
2018-02-02T07:41:14.778Z,71.02
2018-02-02T07:42:14.715Z,70.93
2018-02-02T07:43:14.670Z,71.02
2018-02-02T07:44:14.628Z,71.97
2018-02-02T07:45:14.591Z,73.86
2018-02-02T07:46:14.543Z,72.63
2018-02-02T07:47:14.505Z,73.96
2018-02-02T07:48:14.464Z,76.80
2018-02-02T07:49:14.416Z,76.99
2018-02-02T07:50:14.379Z,76.80
2018-02-02T07:51:14.332Z,77.75
2018-02-02T07:52:14.289Z,78.59
2018-02-02T07:53:14.246Z,78.41
2018-02-02T07:54:14.211Z,79.17
2018-02-02T07:55:14.163Z,80.21
2018-02-02T07:56:14.120Z,80.30
2018-02-02T07:57:14.075Z,80.30
2018-02-02T07:58:14.046Z,82.20
2018-02-02T07:59:13.992Z,82.95
2018-02-02T08:00:13.963Z,82.76
2018-02-02T08:01:13.916Z,83.62
2018-02-02T08:02:13.883Z,84.56
2018-02-02T08:03:13.828Z,85.08
2018-02-02T08:04:13.785Z,85.46
2018-02-02T08:05:13.739Z,84.70
2018-02-02T08:06:13.697Z,85.27
2018-02-02T08:07:13.658Z,85.65
2018-02-02T08:08:13.613Z,87.45
2018-02-02T08:09:13.570Z,88.49
2018-02-02T08:10:13.528Z,88.87
2018-02-02T08:11:13.485Z,88.68
2018-02-02T08:12:13.450Z,88.40
2018-02-02T08:13:13.405Z,89.34
2018-02-02T08:14:13.388Z,90.77
2018-02-02T08:15:13.313Z,90.95
2018-02-02T08:16:13.272Z,91.33
2018-02-02T08:17:13.253Z,93.13
2018-02-02T08:18:13.194Z,92.76
2018-02-02T08:19:13.149Z,92.85
2018-02-02T08:20:13.104Z,92.19
2018-02-02T08:21:13.067Z,92.94
2018-02-02T08:22:13.022Z,92.57
2018-02-02T08:23:12.979Z,94.74
2018-02-02T08:24:12.952Z,93.32
2018-02-02T08:25:12.894Z,94.37
2018-02-02T08:26:12.856Z,93.61
2018-02-02T08:27:12.811Z,93.65
2018-02-02T08:28:13.029Z,94.13
2018-02-02T08:29:12.734Z,95.07
2018-02-02T08:30:12.686Z,95.17
2018-02-02T08:31:12.647Z,95.55
2018-02-02T08:32:12.606Z,94.98
2018-02-02T08:33:12.561Z,93.94
2018-02-02T08:34:12.520Z,94.51
2018-02-02T08:35:12.481Z,94.89
2018-02-02T08:36:12.443Z,96.22
2018-02-02T08:37:12.442Z,96.83
2018-02-02T08:38:12.353Z,95.98
2018-02-02T08:39:12.307Z,96.31
2018-02-02T08:40:12.387Z,96.17
2018-02-02T08:41:12.274Z,97.35
2018-02-02T08:42:12.343Z,96.45
2018-02-02T08:43:12.158Z,95.88
2018-02-02T08:44:12.109Z,96.55
2018-02-02T08:45:12.069Z,96.92
2018-02-02T08:46:12.019Z,96.26
2018-02-02T08:47:11.978Z,96.07
2018-02-02T08:48:11.937Z,96.45
2018-02-02T08:49:11.895Z,96.26
2018-02-02T08:50:11.865Z,96.73
2018-02-02T08:51:11.824Z,96.07
2018-02-02T08:52:11.783Z,94.74
2018-02-02T08:53:11.737Z,95.41
2018-02-02T08:54:11.694Z,96.55
2018-02-02T08:55:11.673Z,95.22
2018-02-02T08:56:11.622Z,96.17
2018-02-02T08:57:11.568Z,95.98
2018-02-02T08:58:11.532Z,95.79
2018-02-02T08:59:11.481Z,96.17
2018-02-02T09:00:11.442Z,95.98
2018-02-02T09:01:11.422Z,96.07
2018-02-02T09:02:11.361Z,96.22
2018-02-02T09:03:11.318Z,97.16
2018-02-02T09:04:11.279Z,98.77
2018-02-02T09:05:11.297Z,98.96
2018-02-02T09:06:11.205Z,99.44
2018-02-02T09:07:11.161Z,99.99
2018-02-02T09:08:11.115Z,99.44
2018-02-02T09:09:11.066Z,99.99
2018-02-02T09:10:11.066Z,99.99
2018-02-02T09:11:10.975Z,99.99
2018-02-02T09:12:10.948Z,99.99
2018-02-02T09:13:10.893Z,99.99
2018-02-02T09:14:10.855Z,99.99
2018-02-02T09:15:10.826Z,99.99
2018-02-02T09:16:10.770Z,99.99
2018-02-02T09:17:10.729Z,99.99
2018-02-02T09:18:10.687Z,99.99
2018-02-02T09:19:10.648Z,99.99
2018-02-02T09:20:10.625Z,99.99
2018-02-02T09:21:10.562Z,99.99
2018-02-02T09:22:10.520Z,99.99
2018-02-02T09:23:10.481Z,99.99
2018-02-02T09:24:10.440Z,99.99
2018-02-02T09:25:10.402Z,99.99
2018-02-02T09:26:10.363Z,99.99
2018-02-02T09:27:10.316Z,99.99
2018-02-02T09:28:10.274Z,99.99
2018-02-02T09:29:10.234Z,99.99
2018-02-02T09:30:10.192Z,99.99
2018-02-02T09:31:10.160Z,99.99
2018-02-02T09:32:10.111Z,99.99
2018-02-02T09:33:10.070Z,99.99
2018-02-02T09:34:10.031Z,99.99
2018-02-02T09:35:09.992Z,99.99
2018-02-02T09:36:09.946Z,99.99
2018-02-02T09:37:09.904Z,99.99
2018-02-02T09:38:09.866Z,99.99
2018-02-02T09:39:09.823Z,99.99
2018-02-02T09:40:09.783Z,99.99
2018-02-02T09:41:09.743Z,99.99
2018-02-02T09:42:09.700Z,99.99
2018-02-02T09:43:09.658Z,99.99
2018-02-02T09:44:09.624Z,99.99
2018-02-02T09:45:09.588Z,99.99
2018-02-02T09:46:09.544Z,99.99
2018-02-02T09:47:09.502Z,99.99
2018-02-02T09:48:09.460Z,99.99
2018-02-02T09:49:09.413Z,99.99
2018-02-02T09:50:09.373Z,99.99
2018-02-02T09:51:09.332Z,99.99
2018-02-02T09:52:09.298Z,99.99
2018-02-02T09:53:09.247Z,99.99
2018-02-02T09:54:09.206Z,99.99
2018-02-02T09:55:09.168Z,99.99
2018-02-02T09:56:09.125Z,99.99
2018-02-02T09:57:09.085Z,99.99
2018-02-02T09:58:09.040Z,99.99
2018-02-02T09:59:09.001Z,99.99
2018-02-02T10:00:08.957Z,99.99
2018-02-02T10:01:08.928Z,99.99
2018-02-02T10:02:08.888Z,99.99
2018-02-02T10:03:08.836Z,99.99
2018-02-02T10:04:08.805Z,99.99
2018-02-02T10:05:08.755Z,99.99
2018-02-02T10:06:08.715Z,99.99
2018-02-02T10:07:08.687Z,99.99
2018-02-02T10:08:08.633Z,99.99
2018-02-02T10:09:08.590Z,99.99
2018-02-02T10:10:08.557Z,99.99
2018-02-02T10:11:08.519Z,99.99
2018-02-02T10:12:08.468Z,99.99
2018-02-02T10:13:08.433Z,99.99
2018-02-02T10:14:08.387Z,99.99
2018-02-02T10:15:08.345Z,99.99
2018-02-02T10:16:08.305Z,99.99
2018-02-02T10:17:08.277Z,99.99
2018-02-02T10:18:08.224Z,99.99
2018-02-02T10:19:08.184Z,99.99
2018-02-02T10:20:08.147Z,99.99
2018-02-02T10:21:08.101Z,99.99
2018-02-02T10:22:08.060Z,99.99
2018-02-02T10:23:08.021Z,99.99
2018-02-02T10:24:07.979Z,99.99
2018-02-02T10:25:07.938Z,99.99
2018-02-02T10:26:07.898Z,99.99
2018-02-02T10:27:07.857Z,99.99
2018-02-02T10:28:07.814Z,99.99
2018-02-02T10:29:07.773Z,99.99
2018-02-02T10:30:07.733Z,99.99
2018-02-02T10:31:07.693Z,99.99
2018-02-02T10:32:07.655Z,99.99
2018-02-02T10:33:07.610Z,99.99
2018-02-02T10:34:07.579Z,99.99
2018-02-02T10:35:07.531Z,99.99
2018-02-02T10:36:07.496Z,99.99
2018-02-02T10:37:07.446Z,99.99
2018-02-02T10:38:07.411Z,99.99
2018-02-02T10:39:07.373Z,99.99
2018-02-02T10:40:07.323Z,99.99
2018-02-02T10:41:07.283Z,99.99
2018-02-02T10:42:07.242Z,99.99
2018-02-02T10:43:07.213Z,99.99
2018-02-02T10:44:07.164Z,99.99
2018-02-02T10:45:07.132Z,99.99
2018-02-02T10:46:07.086Z,99.99
2018-02-02T10:47:07.038Z,99.99
2018-02-02T10:48:06.998Z,99.99
2018-02-02T10:49:06.956Z,99.99
2018-02-02T10:50:06.916Z,99.99
2018-02-02T10:51:06.877Z,99.99
2018-02-02T10:52:06.838Z,99.99
2018-02-02T10:53:06.838Z,99.99
2018-02-02T10:54:06.760Z,99.99
2018-02-02T10:55:06.715Z,99.99
2018-02-02T10:56:06.674Z,99.99
2018-02-02T10:57:06.653Z,99.99
2018-02-02T10:58:06.589Z,99.99
2018-02-02T10:59:06.552Z,99.99
2018-02-02T11:00:06.511Z,99.99
2018-02-02T11:01:06.468Z,99.99
2018-02-02T11:02:06.430Z,99.99
2018-02-02T11:03:06.396Z,99.99
2018-02-02T11:04:06.353Z,99.99
2018-02-02T11:05:06.315Z,99.99
2018-02-02T11:06:06.272Z,99.99
2018-02-02T11:07:06.230Z,99.99
2018-02-02T11:08:06.187Z,99.99
2018-02-02T11:09:06.169Z,99.99
2018-02-02T11:10:06.120Z,99.99
2018-02-02T11:11:06.115Z,99.99
2018-02-02T11:12:06.035Z,99.99
2018-02-02T11:13:06.010Z,99.99
2018-02-02T11:14:05.953Z,99.99
2018-02-02T11:15:05.934Z,99.99
2018-02-02T11:16:05.866Z,99.99
2018-02-02T11:17:05.823Z,99.99
2018-02-02T11:18:05.795Z,99.99
2018-02-02T11:19:05.770Z,99.99
2018-02-02T11:20:05.717Z,99.99
2018-02-02T11:21:05.666Z,99.99
2018-02-02T11:22:05.631Z,99.99
2018-02-02T11:23:05.584Z,99.99
2018-02-02T11:24:05.553Z,99.99
2018-02-02T11:25:05.523Z,99.99
2018-02-02T11:26:05.468Z,99.99
2018-02-02T11:27:05.429Z,99.99
2018-02-02T11:28:05.452Z,99.99
2018-02-02T11:29:05.361Z,99.99
2018-02-02T11:30:05.309Z,99.99
2018-02-02T11:31:05.263Z,99.99
2018-02-02T11:32:05.238Z,99.99
2018-02-02T11:33:05.216Z,99.99
2018-02-02T11:34:05.149Z,99.99
2018-02-02T11:35:05.110Z,99.99
2018-02-02T11:36:05.072Z,99.99
2018-02-02T11:37:05.034Z,99.99
2018-02-02T11:38:04.986Z,99.99
2018-02-02T11:39:04.956Z,99.99
2018-02-02T11:40:04.933Z,99.99
2018-02-02T11:41:04.873Z,99.99
2018-02-02T11:42:04.840Z,99.99
2018-02-02T11:43:04.788Z,99.99
2018-02-02T11:44:04.806Z,99.99
2018-02-02T11:45:04.715Z,99.99
2018-02-02T11:46:04.670Z,99.99
2018-02-02T11:47:04.633Z,99.99
2018-02-02T11:48:04.593Z,99.99
2018-02-02T11:49:04.551Z,99.99
2018-02-02T11:50:04.510Z,99.99
2018-02-02T11:51:04.474Z,99.99
2018-02-02T11:52:04.433Z,99.99
2018-02-02T11:53:04.395Z,99.99
2018-02-02T11:54:04.355Z,99.99
2018-02-02T11:55:04.315Z,99.99
2018-02-02T11:56:04.283Z,99.99
2018-02-02T11:57:04.236Z,99.99
2018-02-02T11:58:04.196Z,99.99
2018-02-02T11:59:04.156Z,99.99
2018-02-02T12:00:04.122Z,99.99
2018-02-02T12:01:04.079Z,99.99
2018-02-02T12:02:04.039Z,99.99
2018-02-02T12:03:04.002Z,99.99
2018-02-02T12:04:03.960Z,99.99
2018-02-02T12:05:03.920Z,99.99
2018-02-02T12:06:03.893Z,99.99
2018-02-02T12:07:03.841Z,99.99
2018-02-02T12:08:03.810Z,99.99
2018-02-02T12:09:03.776Z,99.99
2018-02-02T12:10:03.720Z,99.99
2018-02-02T12:11:03.683Z,99.99
2018-02-02T12:12:03.641Z,99.99
2018-02-02T12:13:03.613Z,99.99
2018-02-02T12:14:03.572Z,99.83
2018-02-02T12:15:03.526Z,99.99
2018-02-02T12:16:03.492Z,99.99
2018-02-02T12:17:03.446Z,99.99
2018-02-02T12:18:03.406Z,99.99
2018-02-02T12:19:03.370Z,99.99
2018-02-02T12:20:03.328Z,99.99
2018-02-02T12:21:03.288Z,99.99
2018-02-02T12:22:03.251Z,99.99
2018-02-02T12:23:03.215Z,99.99
2018-02-02T12:24:03.183Z,99.99
2018-02-02T12:25:03.139Z,99.99
2018-02-02T12:26:03.089Z,99.99
2018-02-02T12:27:03.056Z,99.99
2018-02-02T12:28:03.069Z,99.99
2018-02-02T12:29:02.980Z,99.99
2018-02-02T12:30:02.935Z,99.73
2018-02-02T12:31:02.894Z,99.99
2018-02-02T12:32:02.883Z,99.73
2018-02-02T12:33:02.815Z,99.99
2018-02-02T12:34:02.784Z,99.92
2018-02-02T12:35:02.802Z,98.69
2018-02-02T12:36:02.695Z,99.35
2018-02-02T12:37:02.682Z,98.79
2018-02-02T12:38:02.617Z,99.16
2018-02-02T12:39:02.596Z,99.26
2018-02-02T12:40:02.540Z,99.44
2018-02-02T12:41:02.501Z,98.88
2018-02-02T12:42:02.467Z,98.69
2018-02-02T12:43:02.437Z,99.64
2018-02-02T12:44:02.384Z,99.54
2018-02-02T12:45:02.357Z,99.54
2018-02-02T12:46:02.312Z,99.26
2018-02-02T12:47:02.263Z,99.54
2018-02-02T12:48:02.231Z,99.73
2018-02-02T12:49:02.186Z,99.92
2018-02-02T12:50:02.154Z,99.99
2018-02-02T12:51:02.155Z,99.99
2018-02-02T12:52:02.068Z,99.99